sensor_id;sensor_type;location;lat;lon;timestamp;P1;durP1;ratioP1;P2;durP2;ratioP2
5776;SDS011;2914;42.668;23.346;2023-04-03T00:00:09;28.33;;;12.37;;
5776;SDS011;2914;42.668;23.346;2023-04-03T00:02:39;20.37;;;12.30;;
5776;SDS011;2914;42.668;23.346;2023-04-03T00:05:09;20.20;;;11.63;;
5776;SDS011;2914;42.668;23.346;2023-04-03T00:07:38;21.20;;;11.17;;
5776;SDS011;2914;42.668;23.346;2023-04-03T00:10:08;15.93;;;10.70;;
5776;SDS011;2914;42.668;23.346;2023-04-03T00:12:38;15.17;;;9.73;;
5776;SDS011;2914;42.668;23.346;2023-04-03T00:15:07;11.80;;;8.03;;
5776;SDS011;2914;42.668;23.346;2023-04-03T00:17:37;12.53;;;8.00;;
5776;SDS011;2914;42.668;23.346;2023-04-03T00:20:08;13.03;;;7.70;;
5776;SDS011;2914;42.668;23.346;2023-04-03T00:22:37;10.47;;;8.13;;
5776;SDS011;2914;42.668;23.346;2023-04-03T00:25:08;14.80;;;9.10;;
5776;SDS011;2914;42.668;23.346;2023-04-03T00:27:37;13.63;;;8.10;;
5776;SDS011;2914;42.668;23.346;2023-04-03T00:30:08;14.53;;;7.27;;
5776;SDS011;2914;42.668;23.346;2023-04-03T00:32:41;20.70;;;6.97;;
5776;SDS011;2914;42.668;23.346;2023-04-03T00:35:10;13.87;;;7.10;;
5776;SDS011;2914;42.668;23.346;2023-04-03T00:37:40;12.33;;;8.00;;
5776;SDS011;2914;42.668;23.346;2023-04-03T00:40:10;8.53;;;7.53;;
5776;SDS011;2914;42.668;23.346;2023-04-03T00:42:41;8.43;;;5.90;;
5776;SDS011;2914;42.668;23.346;2023-04-03T00:48:13;11.47;;;6.63;;
5776;SDS011;2914;42.668;23.346;2023-04-03T00:50:45;6.10;;;5.50;;
5776;SDS011;2914;42.668;23.346;2023-04-03T00:53:17;7.70;;;4.47;;
5776;SDS011;2914;42.668;23.346;2023-04-03T00:55:48;7.40;;;5.10;;
5776;SDS011;2914;42.668;23.346;2023-04-03T00:58:18;9.70;;;5.67;;
5776;SDS011;2914;42.668;23.346;2023-04-03T01:00:52;6.47;;;5.80;;
5776;SDS011;2914;42.668;23.346;2023-04-03T01:03:36;9.33;;;5.77;;
5776;SDS011;2914;42.668;23.346;2023-04-03T01:06:05;8.33;;;5.17;;
5776;SDS011;2914;42.668;23.346;2023-04-03T01:08:34;7.77;;;5.27;;
5776;SDS011;2914;42.668;23.346;2023-04-03T01:11:04;6.27;;;4.93;;
5776;SDS011;2914;42.668;23.346;2023-04-03T01:13:33;7.73;;;5.90;;
5776;SDS011;2914;42.668;23.346;2023-04-03T01:16:02;11.30;;;5.40;;
5776;SDS011;2914;42.668;23.346;2023-04-03T01:18:32;7.73;;;5.20;;
5776;SDS011;2914;42.668;23.346;2023-04-03T01:21:25;8.03;;;5.60;;
5776;SDS011;2914;42.668;23.346;2023-04-03T01:24:01;7.97;;;5.23;;
5776;SDS011;2914;42.668;23.346;2023-04-03T01:26:38;11.63;;;5.57;;
5776;SDS011;2914;42.668;23.346;2023-04-03T01:29:07;8.03;;;5.90;;
5776;SDS011;2914;42.668;23.346;2023-04-03T01:31:45;7.00;;;6.00;;
5776;SDS011;2914;42.668;23.346;2023-04-03T01:34:19;15.30;;;6.10;;
5776;SDS011;2914;42.668;23.346;2023-04-03T01:36:49;5.67;;;4.57;;
5776;SDS011;2914;42.668;23.346;2023-04-03T01:39:18;6.77;;;5.23;;
5776;SDS011;2914;42.668;23.346;2023-04-03T01:41:48;4.77;;;4.47;;
5776;SDS011;2914;42.668;23.346;2023-04-03T01:44:18;5.67;;;4.53;;
5776;SDS011;2914;42.668;23.346;2023-04-03T01:46:47;8.80;;;5.30;;
5776;SDS011;2914;42.668;23.346;2023-04-03T01:49:16;9.20;;;4.53;;
5776;SDS011;2914;42.668;23.346;2023-04-03T01:51:45;5.33;;;4.30;;
5776;SDS011;2914;42.668;23.346;2023-04-03T01:54:14;6.43;;;5.60;;
5776;SDS011;2914;42.668;23.346;2023-04-03T01:56:43;5.53;;;5.03;;
5776;SDS011;2914;42.668;23.346;2023-04-03T01:59:12;5.50;;;4.47;;
5776;SDS011;2914;42.668;23.346;2023-04-03T02:01:43;13.23;;;6.17;;
5776;SDS011;2914;42.668;23.346;2023-04-03T02:04:12;10.77;;;7.30;;
5776;SDS011;2914;42.668;23.346;2023-04-03T02:06:41;10.50;;;7.63;;
5776;SDS011;2914;42.668;23.346;2023-04-03T02:09:10;12.67;;;8.33;;
5776;SDS011;2914;42.668;23.346;2023-04-03T02:11:39;13.80;;;8.50;;
5776;SDS011;2914;42.668;23.346;2023-04-03T02:14:08;11.80;;;8.00;;
5776;SDS011;2914;42.668;23.346;2023-04-03T02:16:37;16.70;;;9.23;;
5776;SDS011;2914;42.668;23.346;2023-04-03T02:19:07;10.47;;;7.40;;
5776;SDS011;2914;42.668;23.346;2023-04-03T02:21:36;13.90;;;7.83;;
5776;SDS011;2914;42.668;23.346;2023-04-03T02:24:05;11.87;;;7.97;;
5776;SDS011;2914;42.668;23.346;2023-04-03T02:26:34;11.03;;;7.37;;
5776;SDS011;2914;42.668;23.346;2023-04-03T02:29:12;14.10;;;7.53;;
5776;SDS011;2914;42.668;23.346;2023-04-03T02:31:41;7.90;;;6.00;;
5776;SDS011;2914;42.668;23.346;2023-04-03T02:34:25;11.80;;;7.10;;
5776;SDS011;2914;42.668;23.346;2023-04-03T02:36:54;13.97;;;8.10;;
5776;SDS011;2914;42.668;23.346;2023-04-03T02:39:23;18.03;;;9.03;;
5776;SDS011;2914;42.668;23.346;2023-04-03T02:41:54;23.13;;;9.43;;
5776;SDS011;2914;42.668;23.346;2023-04-03T02:44:23;19.37;;;11.67;;
5776;SDS011;2914;42.668;23.346;2023-04-03T02:46:52;17.63;;;10.23;;
5776;SDS011;2914;42.668;23.346;2023-04-03T02:49:22;12.80;;;9.73;;
5776;SDS011;2914;42.668;23.346;2023-04-03T02:51:51;14.13;;;8.83;;
5776;SDS011;2914;42.668;23.346;2023-04-03T02:54:20;18.60;;;9.80;;
5776;SDS011;2914;42.668;23.346;2023-04-03T02:57:03;15.80;;;9.27;;
5776;SDS011;2914;42.668;23.346;2023-04-03T02:59:34;11.90;;;8.60;;
5776;SDS011;2914;42.668;23.346;2023-04-03T03:02:12;12.43;;;8.77;;
5776;SDS011;2914;42.668;23.346;2023-04-03T03:04:41;16.40;;;8.63;;
5776;SDS011;2914;42.668;23.346;2023-04-03T03:07:10;12.70;;;8.67;;
5776;SDS011;2914;42.668;23.346;2023-04-03T03:09:39;10.70;;;7.83;;
5776;SDS011;2914;42.668;23.346;2023-04-03T03:12:09;12.07;;;7.97;;
5776;SDS011;2914;42.668;23.346;2023-04-03T03:14:53;10.20;;;7.00;;
5776;SDS011;2914;42.668;23.346;2023-04-03T03:17:23;9.27;;;6.93;;
5776;SDS011;2914;42.668;23.346;2023-04-03T03:19:52;9.63;;;8.03;;
5776;SDS011;2914;42.668;23.346;2023-04-03T03:22:25;15.77;;;9.13;;
5776;SDS011;2914;42.668;23.346;2023-04-03T03:24:54;12.23;;;7.30;;
5776;SDS011;2914;42.668;23.346;2023-04-03T03:27:23;12.43;;;8.83;;
5776;SDS011;2914;42.668;23.346;2023-04-03T03:29:52;13.87;;;8.90;;
5776;SDS011;2914;42.668;23.346;2023-04-03T03:32:24;24.80;;;11.10;;
5776;SDS011;2914;42.668;23.346;2023-04-03T03:34:53;14.70;;;8.50;;
5776;SDS011;2914;42.668;23.346;2023-04-03T03:37:24;17.30;;;9.70;;
5776;SDS011;2914;42.668;23.346;2023-04-03T03:39:53;10.67;;;7.20;;
5776;SDS011;2914;42.668;23.346;2023-04-03T03:44:59;14.83;;;5.90;;
5776;SDS011;2914;42.668;23.346;2023-04-03T03:47:28;7.47;;;5.43;;
5776;SDS011;2914;42.668;23.346;2023-04-03T03:49:57;10.83;;;6.50;;
5776;SDS011;2914;42.668;23.346;2023-04-03T03:52:26;17.53;;;8.00;;
5776;SDS011;2914;42.668;23.346;2023-04-03T03:54:56;20.53;;;8.60;;
5776;SDS011;2914;42.668;23.346;2023-04-03T03:57:25;19.53;;;9.30;;
5776;SDS011;2914;42.668;23.346;2023-04-03T03:59:57;16.90;;;9.00;;
5776;SDS011;2914;42.668;23.346;2023-04-03T04:02:26;16.53;;;7.80;;
5776;SDS011;2914;42.668;23.346;2023-04-03T04:04:55;16.27;;;9.07;;
5776;SDS011;2914;42.668;23.346;2023-04-03T04:07:24;11.73;;;8.40;;
5776;SDS011;2914;42.668;23.346;2023-04-03T04:09:55;19.13;;;8.53;;
5776;SDS011;2914;42.668;23.346;2023-04-03T04:12:24;14.10;;;8.10;;
5776;SDS011;2914;42.668;23.346;2023-04-03T04:14:53;15.23;;;7.80;;
5776;SDS011;2914;42.668;23.346;2023-04-03T04:17:23;14.77;;;9.00;;
5776;SDS011;2914;42.668;23.346;2023-04-03T04:19:52;12.90;;;8.00;;
5776;SDS011;2914;42.668;23.346;2023-04-03T04:22:21;17.13;;;8.70;;
5776;SDS011;2914;42.668;23.346;2023-04-03T04:24:50;15.53;;;8.60;;
5776;SDS011;2914;42.668;23.346;2023-04-03T04:27:19;21.27;;;11.10;;
5776;SDS011;2914;42.668;23.346;2023-04-03T04:29:48;26.13;;;12.50;;
5776;SDS011;2914;42.668;23.346;2023-04-03T04:32:27;17.40;;;11.90;;
5776;SDS011;2914;42.668;23.346;2023-04-03T04:34:56;15.93;;;10.60;;
5776;SDS011;2914;42.668;23.346;2023-04-03T04:37:26;17.90;;;10.37;;
5776;SDS011;2914;42.668;23.346;2023-04-03T04:42:32;19.13;;;9.30;;
5776;SDS011;2914;42.668;23.346;2023-04-03T04:45:01;12.70;;;8.70;;
5776;SDS011;2914;42.668;23.346;2023-04-03T04:47:31;11.00;;;8.40;;
5776;SDS011;2914;42.668;23.346;2023-04-03T04:50:00;15.33;;;8.13;;
5776;SDS011;2914;42.668;23.346;2023-04-03T04:52:29;14.17;;;8.40;;
5776;SDS011;2914;42.668;23.346;2023-04-03T04:55:00;12.00;;;8.20;;
5776;SDS011;2914;42.668;23.346;2023-04-03T04:57:29;13.00;;;8.20;;
5776;SDS011;2914;42.668;23.346;2023-04-03T04:59:58;14.17;;;7.27;;
5776;SDS011;2914;42.668;23.346;2023-04-03T05:02:27;14.37;;;8.20;;
5776;SDS011;2914;42.668;23.346;2023-04-03T05:04:57;12.13;;;7.37;;
5776;SDS011;2914;42.668;23.346;2023-04-03T05:07:35;30.27;;;9.37;;
5776;SDS011;2914;42.668;23.346;2023-04-03T05:10:09;22.33;;;6.90;;
5776;SDS011;2914;42.668;23.346;2023-04-03T05:12:47;21.73;;;8.10;;
5776;SDS011;2914;42.668;23.346;2023-04-03T05:15:16;11.13;;;7.37;;
5776;SDS011;2914;42.668;23.346;2023-04-03T05:17:46;23.10;;;15.73;;
5776;SDS011;2914;42.668;23.346;2023-04-03T05:20:15;22.00;;;13.47;;
5776;SDS011;2914;42.668;23.346;2023-04-03T05:22:44;23.80;;;15.80;;
5776;SDS011;2914;42.668;23.346;2023-04-03T05:25:13;26.07;;;16.97;;
5776;SDS011;2914;42.668;23.346;2023-04-03T05:27:42;32.03;;;17.80;;
5776;SDS011;2914;42.668;23.346;2023-04-03T05:30:12;46.23;;;22.80;;
5776;SDS011;2914;42.668;23.346;2023-04-03T05:32:42;40.53;;;19.80;;
5776;SDS011;2914;42.668;23.346;2023-04-03T05:35:11;27.83;;;16.90;;
5776;SDS011;2914;42.668;23.346;2023-04-03T05:37:40;35.07;;;18.30;;
5776;SDS011;2914;42.668;23.346;2023-04-03T05:40:10;36.30;;;16.50;;
5776;SDS011;2914;42.668;23.346;2023-04-03T05:42:39;23.80;;;11.50;;
5776;SDS011;2914;42.668;23.346;2023-04-03T05:45:10;23.10;;;13.23;;
5776;SDS011;2914;42.668;23.346;2023-04-03T05:47:54;18.23;;;11.47;;
5776;SDS011;2914;42.668;23.346;2023-04-03T05:50:23;28.23;;;11.40;;
5776;SDS011;2914;42.668;23.346;2023-04-03T05:52:52;23.17;;;12.30;;
5776;SDS011;2914;42.668;23.346;2023-04-03T05:56:09;17.37;;;11.63;;
5776;SDS011;2914;42.668;23.346;2023-04-03T05:58:39;19.67;;;11.00;;
5776;SDS011;2914;42.668;23.346;2023-04-03T06:01:08;29.53;;;9.70;;
5776;SDS011;2914;42.668;23.346;2023-04-03T06:03:37;19.30;;;9.63;;
5776;SDS011;2914;42.668;23.346;2023-04-03T06:06:06;17.97;;;10.90;;
5776;SDS011;2914;42.668;23.346;2023-04-03T06:08:37;21.83;;;11.17;;
5776;SDS011;2914;42.668;23.346;2023-04-03T06:11:06;28.93;;;12.43;;
5776;SDS011;2914;42.668;23.346;2023-04-03T06:13:35;37.80;;;14.90;;
5776;SDS011;2914;42.668;23.346;2023-04-03T06:16:05;24.37;;;13.73;;
5776;SDS011;2914;42.668;23.346;2023-04-03T06:18:58;24.33;;;14.23;;
5776;SDS011;2914;42.668;23.346;2023-04-03T06:21:27;28.63;;;14.77;;
5776;SDS011;2914;42.668;23.346;2023-04-03T06:24:05;29.23;;;15.60;;
5776;SDS011;2914;42.668;23.346;2023-04-03T06:26:34;35.47;;;14.47;;
5776;SDS011;2914;42.668;23.346;2023-04-03T06:29:04;25.40;;;13.90;;
5776;SDS011;2914;42.668;23.346;2023-04-03T06:31:33;33.33;;;14.20;;
5776;SDS011;2914;42.668;23.346;2023-04-03T06:34:02;40.07;;;13.70;;
5776;SDS011;2914;42.668;23.346;2023-04-03T06:36:32;25.10;;;14.47;;
5776;SDS011;2914;42.668;23.346;2023-04-03T06:39:01;32.33;;;14.00;;
5776;SDS011;2914;42.668;23.346;2023-04-03T06:41:31;27.43;;;14.63;;
5776;SDS011;2914;42.668;23.346;2023-04-03T06:44:00;36.70;;;14.93;;
5776;SDS011;2914;42.668;23.346;2023-04-03T06:46:29;30.10;;;16.30;;
5776;SDS011;2914;42.668;23.346;2023-04-03T06:48:58;22.03;;;14.67;;
5776;SDS011;2914;42.668;23.346;2023-04-03T06:51:42;21.67;;;14.10;;
5776;SDS011;2914;42.668;23.346;2023-04-03T06:54:11;41.00;;;14.60;;
5776;SDS011;2914;42.668;23.346;2023-04-03T06:56:41;37.10;;;17.80;;
5776;SDS011;2914;42.668;23.346;2023-04-03T06:59:10;33.93;;;17.37;;
5776;SDS011;2914;42.668;23.346;2023-04-03T07:01:41;43.90;;;16.90;;
5776;SDS011;2914;42.668;23.346;2023-04-03T07:04:10;33.77;;;17.93;;
5776;SDS011;2914;42.668;23.346;2023-04-03T07:06:39;34.73;;;18.03;;
5776;SDS011;2914;42.668;23.346;2023-04-03T07:09:08;42.20;;;16.10;;
5776;SDS011;2914;42.668;23.346;2023-04-03T07:11:38;31.20;;;14.43;;
5776;SDS011;2914;42.668;23.346;2023-04-03T07:14:07;27.43;;;12.67;;
5776;SDS011;2914;42.668;23.346;2023-04-03T07:16:51;25.47;;;13.53;;
5776;SDS011;2914;42.668;23.346;2023-04-03T07:19:20;24.23;;;13.77;;
5776;SDS011;2914;42.668;23.346;2023-04-03T07:21:50;30.43;;;11.90;;
5776;SDS011;2914;42.668;23.346;2023-04-03T07:24:19;19.60;;;12.60;;
5776;SDS011;2914;42.668;23.346;2023-04-03T07:26:50;30.60;;;12.93;;
5776;SDS011;2914;42.668;23.346;2023-04-03T07:29:20;15.97;;;11.13;;
5776;SDS011;2914;42.668;23.346;2023-04-03T07:31:50;18.60;;;11.67;;
5776;SDS011;2914;42.668;23.346;2023-04-03T07:34:19;22.43;;;10.80;;
5776;SDS011;2914;42.668;23.346;2023-04-03T07:36:48;32.60;;;11.23;;
5776;SDS011;2914;42.668;23.346;2023-04-03T07:39:17;22.83;;;12.53;;
5776;SDS011;2914;42.668;23.346;2023-04-03T07:41:46;23.20;;;11.50;;
5776;SDS011;2914;42.668;23.346;2023-04-03T07:44:16;26.17;;;11.70;;
5776;SDS011;2914;42.668;23.346;2023-04-03T07:46:45;30.80;;;12.40;;
5776;SDS011;2914;42.668;23.346;2023-04-03T07:49:16;28.93;;;11.60;;
5776;SDS011;2914;42.668;23.346;2023-04-03T07:51:45;22.20;;;11.83;;
5776;SDS011;2914;42.668;23.346;2023-04-03T07:54:15;18.07;;;11.67;;
5776;SDS011;2914;42.668;23.346;2023-04-03T07:56:44;18.80;;;11.60;;
5776;SDS011;2914;42.668;23.346;2023-04-03T07:59:14;21.13;;;11.90;;
5776;SDS011;2914;42.668;23.346;2023-04-03T08:01:43;24.47;;;14.00;;
5776;SDS011;2914;42.668;23.346;2023-04-03T08:04:12;26.40;;;15.30;;
5776;SDS011;2914;42.668;23.346;2023-04-03T08:06:41;42.83;;;19.07;;
5776;SDS011;2914;42.668;23.346;2023-04-03T08:09:10;45.20;;;18.43;;
5776;SDS011;2914;42.668;23.346;2023-04-03T08:11:40;43.87;;;20.80;;
5776;SDS011;2914;42.668;23.346;2023-04-03T08:14:10;47.63;;;20.20;;
5776;SDS011;2914;42.668;23.346;2023-04-03T08:16:41;38.17;;;20.27;;
5776;SDS011;2914;42.668;23.346;2023-04-03T08:19:10;49.33;;;20.47;;
5776;SDS011;2914;42.668;23.346;2023-04-03T08:21:41;39.90;;;24.60;;
5776;SDS011;2914;42.668;23.346;2023-04-03T08:24:11;55.97;;;24.00;;
5776;SDS011;2914;42.668;23.346;2023-04-03T08:26:40;41.60;;;25.00;;
5776;SDS011;2914;42.668;23.346;2023-04-03T08:29:09;45.27;;;23.80;;
5776;SDS011;2914;42.668;23.346;2023-04-03T08:31:51;39.37;;;23.87;;
5776;SDS011;2914;42.668;23.346;2023-04-03T08:34:21;53.57;;;23.80;;
5776;SDS011;2914;42.668;23.346;2023-04-03T08:36:50;48.00;;;23.27;;
5776;SDS011;2914;42.668;23.346;2023-04-03T08:39:19;36.87;;;20.70;;
5776;SDS011;2914;42.668;23.346;2023-04-03T08:41:48;47.63;;;21.50;;
5776;SDS011;2914;42.668;23.346;2023-04-03T08:44:19;41.27;;;22.47;;
5776;SDS011;2914;42.668;23.346;2023-04-03T08:46:54;36.50;;;22.13;;
5776;SDS011;2914;42.668;23.346;2023-04-03T08:49:30;46.27;;;21.40;;
5776;SDS011;2914;42.668;23.346;2023-04-03T08:52:03;46.60;;;21.37;;
5776;SDS011;2914;42.668;23.346;2023-04-03T08:54:34;30.93;;;19.80;;
5776;SDS011;2914;42.668;23.346;2023-04-03T08:57:05;40.00;;;21.07;;
5776;SDS011;2914;42.668;23.346;2023-04-03T08:59:34;34.90;;;19.10;;
5776;SDS011;2914;42.668;23.346;2023-04-03T09:02:15;39.67;;;17.30;;
5776;SDS011;2914;42.668;23.346;2023-04-03T09:04:48;31.67;;;18.93;;
5776;SDS011;2914;42.668;23.346;2023-04-03T09:07:19;37.63;;;19.43;;
5776;SDS011;2914;42.668;23.346;2023-04-03T09:09:50;38.63;;;18.10;;
5776;SDS011;2914;42.668;23.346;2023-04-03T09:12:21;31.23;;;17.17;;
5776;SDS011;2914;42.668;23.346;2023-04-03T09:14:55;36.17;;;19.43;;
5776;SDS011;2914;42.668;23.346;2023-04-03T09:17:31;38.67;;;17.30;;
5776;SDS011;2914;42.668;23.346;2023-04-03T09:20:07;38.80;;;19.30;;
5776;SDS011;2914;42.668;23.346;2023-04-03T09:22:41;27.10;;;17.60;;
5776;SDS011;2914;42.668;23.346;2023-04-03T09:25:14;35.83;;;17.27;;
5776;SDS011;2914;42.668;23.346;2023-04-03T09:28:15;30.07;;;17.23;;
5776;SDS011;2914;42.668;23.346;2023-04-03T09:30:45;35.90;;;15.07;;
5776;SDS011;2914;42.668;23.346;2023-04-03T09:33:14;22.00;;;14.37;;
5776;SDS011;2914;42.668;23.346;2023-04-03T09:35:44;21.47;;;14.10;;
5776;SDS011;2914;42.668;23.346;2023-04-03T09:38:18;15.60;;;13.10;;
5776;SDS011;2914;42.668;23.346;2023-04-03T09:41:03;25.93;;;13.83;;
5776;SDS011;2914;42.668;23.346;2023-04-03T09:43:35;18.17;;;12.13;;
5776;SDS011;2914;42.668;23.346;2023-04-03T09:46:28;23.53;;;12.70;;
5776;SDS011;2914;42.668;23.346;2023-04-03T09:48:58;27.93;;;15.57;;
5776;SDS011;2914;42.668;23.346;2023-04-03T09:51:30;24.60;;;15.17;;
5776;SDS011;2914;42.668;23.346;2023-04-03T09:53:59;19.33;;;9.90;;
5776;SDS011;2914;42.668;23.346;2023-04-03T09:56:30;17.60;;;9.57;;
5776;SDS011;2914;42.668;23.346;2023-04-03T09:59:07;23.40;;;11.40;;
5776;SDS011;2914;42.668;23.346;2023-04-03T10:04:51;32.70;;;14.10;;
5776;SDS011;2914;42.668;23.346;2023-04-03T10:07:27;23.87;;;12.43;;
5776;SDS011;2914;42.668;23.346;2023-04-03T10:09:59;17.40;;;11.17;;
5776;SDS011;2914;42.668;23.346;2023-04-03T10:12:30;24.87;;;12.30;;
5776;SDS011;2914;42.668;23.346;2023-04-03T10:14:59;28.67;;;13.77;;
5776;SDS011;2914;42.668;23.346;2023-04-03T10:17:42;20.70;;;12.60;;
5776;SDS011;2914;42.668;23.346;2023-04-03T10:20:22;29.03;;;12.30;;
5776;SDS011;2914;42.668;23.346;2023-04-03T10:22:59;21.80;;;11.87;;
5776;SDS011;2914;42.668;23.346;2023-04-03T10:25:34;17.40;;;11.83;;
5776;SDS011;2914;42.668;23.346;2023-04-03T10:28:19;22.30;;;10.80;;
5776;SDS011;2914;42.668;23.346;2023-04-03T10:30:51;14.57;;;10.70;;
5776;SDS011;2914;42.668;23.346;2023-04-03T10:33:33;18.50;;;8.57;;
5776;SDS011;2914;42.668;23.346;2023-04-03T10:36:12;15.10;;;7.87;;
5776;SDS011;2914;42.668;23.346;2023-04-03T10:38:48;11.20;;;8.30;;
5776;SDS011;2914;42.668;23.346;2023-04-03T10:41:22;13.20;;;7.80;;
5776;SDS011;2914;42.668;23.346;2023-04-03T10:43:55;8.43;;;6.50;;
5776;SDS011;2914;42.668;23.346;2023-04-03T10:46:30;10.63;;;6.57;;
5776;SDS011;2914;42.668;23.346;2023-04-03T10:49:05;9.13;;;6.17;;
5776;SDS011;2914;42.668;23.346;2023-04-03T10:51:37;10.13;;;6.43;;
5776;SDS011;2914;42.668;23.346;2023-04-03T10:54:10;6.63;;;5.50;;
5776;SDS011;2914;42.668;23.346;2023-04-03T10:56:40;7.83;;;5.57;;
5776;SDS011;2914;42.668;23.346;2023-04-03T10:59:22;9.90;;;4.87;;
5776;SDS011;2914;42.668;23.346;2023-04-03T11:01:55;5.30;;;4.80;;
5776;SDS011;2914;42.668;23.346;2023-04-03T11:04:27;4.83;;;4.33;;
5776;SDS011;2914;42.668;23.346;2023-04-03T11:07:00;6.23;;;4.57;;
5776;SDS011;2914;42.668;23.346;2023-04-03T11:09:33;4.83;;;4.30;;
5776;SDS011;2914;42.668;23.346;2023-04-03T11:12:06;3.70;;;3.40;;
5776;SDS011;2914;42.668;23.346;2023-04-03T11:14:38;8.27;;;4.80;;
5776;SDS011;2914;42.668;23.346;2023-04-03T11:17:12;4.63;;;3.47;;
5776;SDS011;2914;42.668;23.346;2023-04-03T11:19:46;5.33;;;4.17;;
5776;SDS011;2914;42.668;23.346;2023-04-03T11:22:20;5.20;;;4.70;;
5776;SDS011;2914;42.668;23.346;2023-04-03T11:24:55;5.50;;;4.97;;
5776;SDS011;2914;42.668;23.346;2023-04-03T11:27:43;7.13;;;3.83;;
5776;SDS011;2914;42.668;23.346;2023-04-03T11:30:15;3.17;;;2.97;;
5776;SDS011;2914;42.668;23.346;2023-04-03T11:33:09;4.03;;;3.77;;
5776;SDS011;2914;42.668;23.346;2023-04-03T11:35:44;11.00;;;4.10;;
5776;SDS011;2914;42.668;23.346;2023-04-03T11:38:17;3.67;;;3.23;;
5776;SDS011;2914;42.668;23.346;2023-04-03T11:40:56;4.00;;;3.60;;
5776;SDS011;2914;42.668;23.346;2023-04-03T11:43:26;4.80;;;3.67;;
5776;SDS011;2914;42.668;23.346;2023-04-03T11:45:57;4.73;;;4.20;;
5776;SDS011;2914;42.668;23.346;2023-04-03T11:48:42;4.83;;;4.53;;
5776;SDS011;2914;42.668;23.346;2023-04-03T11:54:47;5.97;;;4.67;;
5776;SDS011;2914;42.668;23.346;2023-04-03T12:00:49;3.80;;;3.50;;
5776;SDS011;2914;42.668;23.346;2023-04-03T12:12:57;5.30;;;4.93;;
5776;SDS011;2914;42.668;23.346;2023-04-03T12:18:37;3.40;;;3.20;;
5776;SDS011;2914;42.668;23.346;2023-04-03T12:21:20;5.70;;;3.20;;
5776;SDS011;2914;42.668;23.346;2023-04-03T12:24:02;4.27;;;4.00;;
5776;SDS011;2914;42.668;23.346;2023-04-03T12:26:47;3.90;;;3.60;;
5776;SDS011;2914;42.668;23.346;2023-04-03T12:29:20;21.10;;;4.70;;
5776;SDS011;2914;42.668;23.346;2023-04-03T12:31:55;4.60;;;4.20;;
5776;SDS011;2914;42.668;23.346;2023-04-03T12:34:43;4.63;;;3.70;;
5776;SDS011;2914;42.668;23.346;2023-04-03T12:37:32;4.37;;;4.00;;
5776;SDS011;2914;42.668;23.346;2023-04-03T12:40:11;5.20;;;4.80;;
5776;SDS011;2914;42.668;23.346;2023-04-03T12:43:07;4.43;;;3.80;;
5776;SDS011;2914;42.668;23.346;2023-04-03T12:45:42;5.37;;;4.97;;
5776;SDS011;2914;42.668;23.346;2023-04-03T12:48:14;9.33;;;5.07;;
5776;SDS011;2914;42.668;23.346;2023-04-03T12:50:53;6.80;;;6.10;;
5776;SDS011;2914;42.668;23.346;2023-04-03T12:53:25;9.13;;;5.70;;
5776;SDS011;2914;42.668;23.346;2023-04-03T12:58:47;9.33;;;7.10;;
5776;SDS011;2914;42.668;23.346;2023-04-03T13:01:19;6.83;;;6.20;;
5776;SDS011;2914;42.668;23.346;2023-04-03T13:03:52;7.77;;;6.97;;
5776;SDS011;2914;42.668;23.346;2023-04-03T13:06:23;8.20;;;7.43;;
5776;SDS011;2914;42.668;23.346;2023-04-03T13:08:54;12.30;;;7.70;;
5776;SDS011;2914;42.668;23.346;2023-04-03T13:11:25;8.53;;;6.83;;
5776;SDS011;2914;42.668;23.346;2023-04-03T13:13:58;13.60;;;7.57;;
5776;SDS011;2914;42.668;23.346;2023-04-03T13:16:30;10.47;;;7.20;;
5776;SDS011;2914;42.668;23.346;2023-04-03T13:19:00;9.17;;;7.43;;
5776;SDS011;2914;42.668;23.346;2023-04-03T13:21:30;9.17;;;6.90;;
5776;SDS011;2914;42.668;23.346;2023-04-03T13:24:23;7.53;;;6.83;;
5776;SDS011;2914;42.668;23.346;2023-04-03T13:26:53;8.10;;;7.40;;
5776;SDS011;2914;42.668;23.346;2023-04-03T13:29:24;9.77;;;8.77;;
5776;SDS011;2914;42.668;23.346;2023-04-03T13:31:55;10.43;;;7.43;;
5776;SDS011;2914;42.668;23.346;2023-04-03T13:34:27;8.83;;;8.03;;
5776;SDS011;2914;42.668;23.346;2023-04-03T13:36:59;14.40;;;8.90;;
5776;SDS011;2914;42.668;23.346;2023-04-03T13:39:30;9.10;;;8.23;;
5776;SDS011;2914;42.668;23.346;2023-04-03T13:42:02;31.97;;;12.60;;
5776;SDS011;2914;42.668;23.346;2023-04-03T13:48:17;13.93;;;8.83;;
5776;SDS011;2914;42.668;23.346;2023-04-03T13:50:53;12.00;;;8.90;;
5776;SDS011;2914;42.668;23.346;2023-04-03T13:53:25;8.93;;;7.93;;
5776;SDS011;2914;42.668;23.346;2023-04-03T13:55:57;12.00;;;9.03;;
5776;SDS011;2914;42.668;23.346;2023-04-03T13:58:30;8.50;;;7.73;;
5776;SDS011;2914;42.668;23.346;2023-04-03T14:01:01;8.33;;;7.03;;
5776;SDS011;2914;42.668;23.346;2023-04-03T14:03:39;10.23;;;8.30;;
5776;SDS011;2914;42.668;23.346;2023-04-03T14:06:12;9.87;;;7.50;;
5776;SDS011;2914;42.668;23.346;2023-04-03T14:08:42;7.73;;;7.13;;
5776;SDS011;2914;42.668;23.346;2023-04-03T14:11:13;7.93;;;7.33;;
5776;SDS011;2914;42.668;23.346;2023-04-03T14:13:45;12.60;;;7.03;;
5776;SDS011;2914;42.668;23.346;2023-04-03T14:16:15;9.07;;;8.13;;
5776;SDS011;2914;42.668;23.346;2023-04-03T14:18:46;7.60;;;6.90;;
5776;SDS011;2914;42.668;23.346;2023-04-03T14:21:17;8.30;;;7.43;;
5776;SDS011;2914;42.668;23.346;2023-04-03T14:23:48;6.73;;;6.13;;
5776;SDS011;2914;42.668;23.346;2023-04-03T14:26:18;8.13;;;7.30;;
5776;SDS011;2914;42.668;23.346;2023-04-03T14:28:50;8.33;;;7.53;;
5776;SDS011;2914;42.668;23.346;2023-04-03T14:31:21;11.57;;;8.27;;
5776;SDS011;2914;42.668;23.346;2023-04-03T14:33:51;7.20;;;6.57;;
5776;SDS011;2914;42.668;23.346;2023-04-03T14:36:35;7.53;;;6.70;;
5776;SDS011;2914;42.668;23.346;2023-04-03T14:39:06;7.77;;;7.07;;
5776;SDS011;2914;42.668;23.346;2023-04-03T14:41:49;9.00;;;7.60;;
5776;SDS011;2914;42.668;23.346;2023-04-03T14:44:18;8.17;;;7.43;;
5776;SDS011;2914;42.668;23.346;2023-04-03T14:46:49;11.37;;;9.33;;
5776;SDS011;2914;42.668;23.346;2023-04-03T14:49:19;10.87;;;8.93;;
5776;SDS011;2914;42.668;23.346;2023-04-03T14:52:06;8.57;;;7.53;;
5776;SDS011;2914;42.668;23.346;2023-04-03T14:54:40;12.97;;;6.80;;
5776;SDS011;2914;42.668;23.346;2023-04-03T14:57:09;10.03;;;7.50;;
5776;SDS011;2914;42.668;23.346;2023-04-03T14:59:41;8.87;;;7.17;;
5776;SDS011;2914;42.668;23.346;2023-04-03T15:02:25;8.63;;;6.57;;
5776;SDS011;2914;42.668;23.346;2023-04-03T15:04:56;7.33;;;6.73;;
5776;SDS011;2914;42.668;23.346;2023-04-03T15:10:16;7.27;;;6.40;;
5776;SDS011;2914;42.668;23.346;2023-04-03T15:12:47;6.60;;;6.00;;
5776;SDS011;2914;42.668;23.346;2023-04-03T15:15:18;8.10;;;6.00;;
5776;SDS011;2914;42.668;23.346;2023-04-03T15:18:02;5.70;;;5.23;;
5776;SDS011;2914;42.668;23.346;2023-04-03T15:20:31;5.90;;;5.40;;
5776;SDS011;2914;42.668;23.346;2023-04-03T15:23:01;10.13;;;6.63;;
5776;SDS011;2914;42.668;23.346;2023-04-03T15:25:31;6.57;;;5.80;;
5776;SDS011;2914;42.668;23.346;2023-04-03T15:28:00;5.70;;;5.20;;
5776;SDS011;2914;42.668;23.346;2023-04-03T15:30:30;9.50;;;6.73;;
5776;SDS011;2914;42.668;23.346;2023-04-03T15:33:08;6.50;;;5.50;;
5776;SDS011;2914;42.668;23.346;2023-04-03T15:35:37;5.90;;;5.40;;
5776;SDS011;2914;42.668;23.346;2023-04-03T15:38:06;6.40;;;5.40;;
5776;SDS011;2914;42.668;23.346;2023-04-03T15:40:50;6.40;;;5.80;;
5776;SDS011;2914;42.668;23.346;2023-04-03T15:43:19;7.57;;;5.83;;
5776;SDS011;2914;42.668;23.346;2023-04-03T15:46:11;6.60;;;6.00;;
5776;SDS011;2914;42.668;23.346;2023-04-03T15:48:41;7.93;;;4.90;;
5776;SDS011;2914;42.668;23.346;2023-04-03T15:51:11;9.90;;;4.70;;
5776;SDS011;2914;42.668;23.346;2023-04-03T15:53:40;7.90;;;5.60;;
5776;SDS011;2914;42.668;23.346;2023-04-03T15:56:09;5.87;;;5.20;;
5776;SDS011;2914;42.668;23.346;2023-04-03T15:58:38;7.80;;;5.70;;